Observation data for Knox City on 05/26/2019      Previous  Date  Next       Current Mesonet Observations  Soil Data  Daily Summary Page  Observations in Plain Language
KKN1 260500Z 12009KT 25/21 A2993 RMK A01 T02480205  RH  082%=      5-min Rain = 0
KKN1 260505Z 12009KT 25/21 A2994 RMK A01 T02480205  RH  081%=      5-min Rain = 0
KKN1 260510Z 12008KT 25/21 A2994 RMK A01 T02480205  RH  082%=      5-min Rain = 0
KKN1 260515Z 12008KT 25/20 A2994 RMK A01 T02470204  RH  082%=      5-min Rain = 0
KKN1 260520Z 12007KT 25/20 A2994 RMK A01 T02460204  RH  082%=      5-min Rain = 0
KKN1 260525Z 11007KT 25/20 A2994 RMK A01 T02450204  RH  083%=      5-min Rain = 0
KKN1 260530Z 11006KT 24/20 A2994 RMK A01 T02430203  RH  083%=      5-min Rain = 0
KKN1 260535Z 11006KT 24/20 A2994 RMK A01 T02410203  RH  084%=      5-min Rain = 0
KKN1 260540Z 11006KT 24/20 A2994 RMK A01 T02390203  RH  085%=      5-min Rain = 0
KKN1 260545Z 12006KT 24/20 A2994 RMK A01 T02380203  RH  086%=      5-min Rain = 0
KKN1 260550Z 12006KT 24/20 A2994 RMK A01 T02380203  RH  086%=      5-min Rain = 0
KKN1 260555Z 13007KT 24/20 A2994 RMK A01 T02380203  RH  086%=      5-min Rain = 0
KKN1 260600Z 13007KT 24/20 A2994 RMK A01 T02380203  RH  086%=      5-min Rain = 0
KKN1 260605Z 13008KT 24/20 A2994 RMK A01 T02380203  RH  086%=      5-min Rain = 0
KKN1 260610Z 13007KT 24/20 A2994 RMK A01 T02370203  RH  086%=      5-min Rain = 0
KKN1 260615Z 13008KT 24/20 A2994 RMK A01 T02360203  RH  087%=      5-min Rain = 0
KKN1 260620Z 13008KT 24/20 A2994 RMK A01 T02360203  RH  086%=      5-min Rain = 0
KKN1 260625Z 13008KT 24/20 A2994 RMK A01 T02360202  RH  086%=      5-min Rain = 0
KKN1 260630Z 13008KT 24/20 A2994 RMK A01 T02360202  RH  086%=      5-min Rain = 0
KKN1 260635Z 13008KT 24/20 A2994 RMK A01 T02360202  RH  086%=      5-min Rain = 0
KKN1 260640Z 13009KT 24/20 A2994 RMK A01 T02360201  RH  086%=      5-min Rain = 0
KKN1 260645Z 13009KT 24/20 A2994 RMK A01 T02370201  RH  085%=      5-min Rain = 0
KKN1 260650Z 13008KT 24/20 A2994 RMK A01 T02360201  RH  085%=      5-min Rain = 0
KKN1 260655Z 13008KT 24/20 A2995 RMK A01 T02360201  RH  085%=      5-min Rain = 0
KKN1 260700Z 13009KT 24/20 A2994 RMK A01 T02360200  RH  085%=      5-min Rain = 0
KKN1 260705Z 13009KT 24/20 A2994 RMK A01 T02360200  RH  085%=      5-min Rain = 0
KKN1 260710Z 13010KT 24/20 A2994 RMK A01 T02360200  RH  085%=      5-min Rain = 0
KKN1 260715Z 13010KT 24/20 A2994 RMK A01 T02360200  RH  085%=      5-min Rain = 0
KKN1 260720Z 13010KT 24/20 A2995 RMK A01 T02360200  RH  085%=      5-min Rain = 0
KKN1 260725Z 13010KT 24/20 A2994 RMK A01 T02360200  RH  085%=      5-min Rain = 0
KKN1 260730Z 13010KT 24/20 A2994 RMK A01 T02350200  RH  086%=      5-min Rain = 0
KKN1 260735Z 14011KT 24/20 A2994 RMK A01 T02350200  RH  085%=      5-min Rain = 0
KKN1 260740Z 14010KT 24/20 A2994 RMK A01 T02350199  RH  085%=      5-min Rain = 0
KKN1 260745Z 14010KT 23/20 A2994 RMK A01 T02340199  RH  086%=      5-min Rain = 0
KKN1 260750Z 14010KT 23/20 A2994 RMK A01 T02340199  RH  086%=      5-min Rain = 0
KKN1 260755Z 14011KT 23/20 A2994 RMK A01 T02330199  RH  086%=      5-min Rain = 0
KKN1 260800Z 14010KT 23/20 A2994 RMK A01 T02330199  RH  086%=      5-min Rain = 0
KKN1 260805Z 14010KT 23/20 A2994 RMK A01 T02320199  RH  087%=      5-min Rain = 0
KKN1 260810Z 14010KT 23/20 A2994 RMK A01 T02310198  RH  087%=      5-min Rain = 0
KKN1 260815Z 14009KT 23/20 A2994 RMK A01 T02310198  RH  087%=      5-min Rain = 0
KKN1 260820Z 14009KT 23/20 A2994 RMK A01 T02310198  RH  087%=      5-min Rain = 0
KKN1 260825Z 14009KT 23/20 A2994 RMK A01 T02300198  RH  087%=      5-min Rain = 0
KKN1 260830Z 14009KT 23/20 A2994 RMK A01 T02290197  RH  087%=      5-min Rain = 0
KKN1 260835Z 14009KT 23/20 A2994 RMK A01 T02280197  RH  087%=      5-min Rain = 0
KKN1 260840Z 14009KT 23/20 A2994 RMK A01 T02280197  RH  088%=      5-min Rain = 0
KKN1 260845Z 14009KT 23/20 A2994 RMK A01 T02280197  RH  088%=      5-min Rain = 0
KKN1 260850Z 14009KT 23/20 A2994 RMK A01 T02270197  RH  088%=      5-min Rain = 0
KKN1 260855Z 14008KT 23/20 A2994 RMK A01 T02270197  RH  088%=      5-min Rain = 0
KKN1 260900Z 14010KT 23/20 A2994 RMK A01 T02270197  RH  088%=      5-min Rain = 0
KKN1 260905Z 14009KT 23/20 A2994 RMK A01 T02260197  RH  088%=      5-min Rain = 0
KKN1 260910Z 14009KT 23/20 A2994 RMK A01 T02260196  RH  088%=      5-min Rain = 0
KKN1 260915Z 14008KT 23/20 A2994 RMK A01 T02250196  RH  089%=      5-min Rain = 0
KKN1 260920Z 14009KT 23/20 A2994 RMK A01 T02250196  RH  089%=      5-min Rain = 0
KKN1 260925Z 14008KT 22/20 A2994 RMK A01 T02240196  RH  089%=      5-min Rain = 0
KKN1 260930Z 14008KT 22/20 A2994 RMK A01 T02240196  RH  089%=      5-min Rain = 0
KKN1 260935Z 14008KT 22/20 A2994 RMK A01 T02220195  RH  090%=      5-min Rain = 0
KKN1 260940Z 14009KT 22/20 A2994 RMK A01 T02220195  RH  090%=      5-min Rain = 0
KKN1 260945Z 14009KT 22/20 A2994 RMK A01 T02210195  RH  090%=      5-min Rain = 0
KKN1 260950Z 14008KT 22/19 A2994 RMK A01 T02210194  RH  090%=      5-min Rain = 0
KKN1 260955Z 14008KT 22/19 A2994 RMK A01 T02200194  RH  090%=      5-min Rain = 0
KKN1 261000Z 14008KT 22/19 A2994 RMK A01 T02190194  RH  090%=      5-min Rain = 0
KKN1 261005Z 14009KT 22/19 A2994 RMK A01 T02190193  RH  090%=      5-min Rain = 0
KKN1 261010Z 14009KT 22/19 A2994 RMK A01 T02190193  RH  090%=      5-min Rain = 0
KKN1 261015Z 14009KT 22/19 A2995 RMK A01 T02180193  RH  091%=      5-min Rain = 0
KKN1 261020Z 15010KT 22/19 A2995 RMK A01 T02170192  RH  091%=      5-min Rain = 0
KKN1 261025Z 15009KT 22/19 A2994 RMK A01 T02170192  RH  091%=      5-min Rain = 0
KKN1 261030Z 14009KT 22/19 A2994 RMK A01 T02160192  RH  091%=      5-min Rain = 0
KKN1 261035Z 14010KT 22/19 A2995 RMK A01 T02160192  RH  091%=      5-min Rain = 0
KKN1 261040Z 14009KT 22/19 A2995 RMK A01 T02160192  RH  091%=      5-min Rain = 0
KKN1 261045Z 14009KT 22/19 A2995 RMK A01 T02160191  RH  091%=      5-min Rain = 0
KKN1 261050Z 14009KT 22/19 A2995 RMK A01 T02150191  RH  091%=      5-min Rain = 0
KKN1 261055Z 14010KT 22/19 A2995 RMK A01 T02150191  RH  091%=      5-min Rain = 0
KKN1 261100Z 15010KT 22/19 A2995 RMK A01 T02150191  RH  091%=      5-min Rain = 0
KKN1 261105Z 14010KT 22/19 A2996 RMK A01 T02150191  RH  091%=      5-min Rain = 0
KKN1 261110Z 14008KT 21/19 A2996 RMK A01 T02140191  RH  092%=      5-min Rain = 0
KKN1 261115Z 14008KT 21/19 A2996 RMK A01 T02130190  RH  092%=      5-min Rain = 0
KKN1 261120Z 15009KT 21/19 A2996 RMK A01 T02120189  RH  092%=      5-min Rain = 0
KKN1 261125Z 14009KT 21/19 A2997 RMK A01 T02120189  RH  092%=      5-min Rain = 0
KKN1 261130Z 14008KT 21/19 A2997 RMK A01 T02120189  RH  092%=      5-min Rain = 0
KKN1 261135Z 14008KT 21/19 A2997 RMK A01 T02110189  RH  092%=      5-min Rain = 0
KKN1 261140Z 15008KT 21/19 A2997 RMK A01 T02110189  RH  092%=      5-min Rain = 0
KKN1 261145Z 15008KT 21/19 A2997 RMK A01 T02110188  RH  092%=      5-min Rain = 0
KKN1 261150Z 15008KT 21/19 A2998 RMK A01 T02110189  RH  092%=      5-min Rain = 0
KKN1 261155Z 15009KT 21/19 A2998 RMK A01 T02120189  RH  091%=      5-min Rain = 0
KKN1 261200Z 15009KT 21/19 A2998 RMK A01 T02120189  RH  091%=      5-min Rain = 0
KKN1 261205Z 15009KT 21/19 A2998 RMK A01 T02130189  RH  091%=      5-min Rain = 0
KKN1 261210Z 15008KT 21/19 A2998 RMK A01 T02130189  RH  091%=      5-min Rain = 0
KKN1 261215Z 15008G13KT 21/19 A2999 RMK A01 T02140189  RH  090%=      5-min Rain = 0
KKN1 261220Z 15009KT 22/19 A2999 RMK A01 T02150189  RH  090%=      5-min Rain = 0
KKN1 261225Z 15009KT 22/19 A2999 RMK A01 T02160189  RH  089%=      5-min Rain = 0
KKN1 261230Z 15009KT 22/19 A2999 RMK A01 T02170189  RH  089%=      5-min Rain = 0
KKN1 261235Z 15010KT 22/19 A30 RMK A01 T02180189  RH  088%=      5-min Rain = 0
KKN1 261240Z 15010KT 22/19 A30 RMK A01 T02200189  RH  087%=      5-min Rain = 0
KKN1 261245Z 16011KT 22/19 A3001 RMK A01 T02220189  RH  086%=      5-min Rain = 0
KKN1 261250Z 15010KT 23/19 A3001 RMK A01 T02250189  RH  085%=      5-min Rain = 0
KKN1 261255Z 16013G18KT 23/19 A3001 RMK A01 T02260188  RH  084%=      5-min Rain = 0
KKN1 261300Z 16014G21KT 23/19 A3001 RMK A01 T02270187  RH  082%=      5-min Rain = 0
KKN1 261305Z 16015KT 23/19 A3001 RMK A01 T02290187  RH  081%=      5-min Rain = 0
KKN1 261310Z 16013G18KT 23/19 A3001 RMK A01 T02310188  RH  081%=      5-min Rain = 0
KKN1 261315Z 16015KT 23/19 A3001 RMK A01 T02330187  RH  080%=      5-min Rain = 0
KKN1 261320Z 17013G20KT 23/19 A3001 RMK A01 T02330187  RH  080%=      5-min Rain = 0
KKN1 261325Z 16015G21KT 23/19 A3001 RMK A01 T02340186  RH  079%=      5-min Rain = 0
KKN1 261330Z 17016G21KT 24/19 A3002 RMK A01 T02350186  RH  078%=      5-min Rain = 0
KKN1 261335Z 16015G21KT 23/19 A3002 RMK A01 T02340185  RH  078%=      5-min Rain = 0
KKN1 261340Z 17015G20KT 23/19 A3002 RMK A01 T02320185  RH  079%=      5-min Rain = 0
KKN1 261345Z 17015KT 24/19 A3002 RMK A01 T02350185  RH  078%=      5-min Rain = 0
KKN1 261350Z 17015G20KT 24/19 A3002 RMK A01 T02380185  RH  076%=      5-min Rain = 0
KKN1 261355Z 17015KT 24/19 A3002 RMK A01 T02400186  RH  075%=      5-min Rain = 0
KKN1 261400Z 18015G21KT 24/19 A3002 RMK A01 T02420186  RH  075%=      5-min Rain = 0
KKN1 261405Z 18014G20KT 24/19 A3002 RMK A01 T02440186  RH  074%=      5-min Rain = 0
KKN1 261410Z 18018KT 24/18 A3002 RMK A01 T02420184  RH  074%=      5-min Rain = 0
KKN1 261415Z 18018G24KT 24/18 A3002 RMK A01 T02430184  RH  073%=      5-min Rain = 0
KKN1 261420Z 17017G22KT 24/18 A3002 RMK A01 T02440183  RH  073%=      5-min Rain = 0
KKN1 261425Z 17017G23KT 25/18 A3002 RMK A01 T02460183  RH  072%=      5-min Rain = 0
KKN1 261430Z 18014G21KT 25/19 A3002 RMK A01 T02490185  RH  071%=      5-min Rain = 0
KKN1 261435Z 17018G23KT 25/18 A3003 RMK A01 T02490182  RH  070%=      5-min Rain = 0
KKN1 261440Z 18017G24KT 25/18 A3002 RMK A01 T02510182  RH  069%=      5-min Rain = 0
KKN1 261445Z 17017G22KT 26/18 A3002 RMK A01 T02550184  RH  068%=      5-min Rain = 0
KKN1 261450Z 17018KT 25/18 A3002 RMK A01 T02510182  RH  069%=      5-min Rain = 0
KKN1 261455Z 17018G23KT 25/18 A3002 RMK A01 T02510181  RH  069%=      5-min Rain = 0
KKN1 261500Z 18016G21KT 26/18 A3002 RMK A01 T02550182  RH  068%=      5-min Rain = 0
KKN1 261505Z 18016G24KT 26/18 A3002 RMK A01 T02560182  RH  067%=      5-min Rain = 0
KKN1 261510Z 17017G23KT 26/18 A3002 RMK A01 T02560182  RH  067%=      5-min Rain = 0
KKN1 261515Z 17015G21KT 26/18 A3002 RMK A01 T02600183  RH  066%=      5-min Rain = 0
KKN1 261520Z 18017G23KT 26/18 A3002 RMK A01 T02610181  RH  065%=      5-min Rain = 0
KKN1 261525Z 18017G26KT 26/18 A3002 RMK A01 T02590179  RH  065%=      5-min Rain = 0
KKN1 261530Z 17019G25KT 26/18 A3002 RMK A01 T02580179  RH  065%=      5-min Rain = 0
KKN1 261535Z 18018G23KT 26/18 A3002 RMK A01 T02590179  RH  065%=      5-min Rain = 0
KKN1 261540Z 18016G22KT 26/18 A3002 RMK A01 T02600181  RH  065%=      5-min Rain = 0
KKN1 261545Z 18016G23KT 26/18 A3002 RMK A01 T02620180  RH  064%=      5-min Rain = 0
KKN1 261550Z 18016G21KT 26/18 A3002 RMK A01 T02630180  RH  064%=      5-min Rain = 0
KKN1 261555Z 17016G21KT 26/18 A3001 RMK A01 T02600180  RH  065%=      5-min Rain = 0
KKN1 261600Z 18015G21KT 27/18 A3002 RMK A01 T02650181  RH  063%=      5-min Rain = 0
KKN1 261605Z 18017G22KT 27/18 A3001 RMK A01 T02660181  RH  063%=      5-min Rain = 0
KKN1 261610Z 18018KT 26/18 A3001 RMK A01 T02630179  RH  063%=      5-min Rain = 0
KKN1 261615Z 18017G22KT 26/18 A3001 RMK A01 T02620180  RH  064%=      5-min Rain = 0
KKN1 261620Z 17017G24KT 26/18 A3001 RMK A01 T02630181  RH  064%=      5-min Rain = 0
KKN1 261625Z 17017G22KT 26/18 A3001 RMK A01 T02610180  RH  065%=      5-min Rain = 0
KKN1 261630Z 18016G22KT 26/18 A3001 RMK A01 T02630182  RH  064%=      5-min Rain = 0
KKN1 261635Z 18016G22KT 27/18 A3001 RMK A01 T02660182  RH  063%=      5-min Rain = 0
KKN1 261640Z 17015G20KT 27/18 A30 RMK A01 T02670183  RH  063%=      5-min Rain = 0
KKN1 261645Z 17015G21KT 27/19 A30 RMK A01 T02680185  RH  063%=      5-min Rain = 0
KKN1 261650Z 17015G22KT 27/19 A30 RMK A01 T02720185  RH  062%=      5-min Rain = 0
KKN1 261655Z 17016G22KT 28/18 A2999 RMK A01 T02750184  RH  061%=      5-min Rain = 0
KKN1 261700Z 17016G22KT 28/19 A2999 RMK A01 T02750185  RH  061%=      5-min Rain = 0
KKN1 261705Z 17015G22KT 28/19 A2999 RMK A01 T02780187  RH  061%=      5-min Rain = 0
KKN1 261710Z 16018G25KT 27/19 A2999 RMK A01 T02740185  RH  061%=      5-min Rain = 0
KKN1 261715Z 17017G24KT 28/19 A2999 RMK A01 T02790185  RH  060%=      5-min Rain = 0
KKN1 261720Z 16016G21KT 28/19 A2999 RMK A01 T02810185  RH  059%=      5-min Rain = 0
KKN1 261725Z 16018G25KT 28/18 A2999 RMK A01 T02780184  RH  060%=      5-min Rain = 0
KKN1 261730Z 17019G24KT 28/18 A2999 RMK A01 T02750184  RH  061%=      5-min Rain = 0
KKN1 261735Z 16019G24KT 28/19 A2999 RMK A01 T02790185  RH  060%=      5-min Rain = 0
KKN1 261740Z 17017G22KT 28/19 A2999 RMK A01 T02780185  RH  060%=      5-min Rain = 0
KKN1 261745Z 17018G25KT 28/18 A2999 RMK A01 T02800184  RH  059%=      5-min Rain = 0
KKN1 261750Z 17019G25KT 28/18 A2999 RMK A01 T02800183  RH  059%=      5-min Rain = 0
KKN1 261755Z 17019G24KT 28/18 A2999 RMK A01 T02810184  RH  059%=      5-min Rain = 0
KKN1 261800Z 17016KT 28/18 A2999 RMK A01 T02820184  RH  059%=      5-min Rain = 0
KKN1 261805Z 16017G26KT 29/19 A2999 RMK A01 T02850186  RH  058%=      5-min Rain = 0
KKN1 261810Z 17019G26KT 29/19 A2999 RMK A01 T02860186  RH  058%=      5-min Rain = 0
KKN1 261815Z 17018G25KT 29/19 A2998 RMK A01 T02880186  RH  057%=      5-min Rain = 0
KKN1 261820Z 18017G23KT 29/19 A2998 RMK A01 T02880186  RH  057%=      5-min Rain = 0
KKN1 261825Z 16017G25KT 29/19 A2998 RMK A01 T02890187  RH  057%=      5-min Rain = 0
KKN1 261830Z 17016G23KT 29/19 A2998 RMK A01 T02890188  RH  058%=      5-min Rain = 0
KKN1 261835Z 17017G23KT 29/19 A2998 RMK A01 T02920188  RH  057%=      5-min Rain = 0
KKN1 261840Z 18016G23KT 29/19 A2998 RMK A01 T02940188  RH  056%=      5-min Rain = 0
KKN1 261845Z 17018G24KT 29/19 A2998 RMK A01 T02900189  RH  057%=      5-min Rain = 0
KKN1 261850Z 17018G23KT 29/19 A2998 RMK A01 T02900190  RH  058%=      5-min Rain = 0
KKN1 261855Z 17017G24KT 29/19 A2998 RMK A01 T02910191  RH  058%=      5-min Rain = 0
KKN1 261900Z 17018KT 29/19 A2998 RMK A01 T02900189  RH  057%=      5-min Rain = 0
KKN1 261905Z 17017G23KT 29/19 A2998 RMK A01 T02870189  RH  059%=      5-min Rain = 0
KKN1 261910Z 16018G24KT 29/19 A2998 RMK A01 T02860190  RH  059%=      5-min Rain = 0
KKN1 261915Z 17016G21KT 29/19 A2997 RMK A01 T02870190  RH  059%=      5-min Rain = 0
KKN1 261920Z 17017G22KT 29/19 A2997 RMK A01 T02880190  RH  059%=      5-min Rain = 0
KKN1 261925Z 17017G24KT 29/19 A2997 RMK A01 T02860190  RH  059%=      5-min Rain = 0
KKN1 261930Z 18019KT 28/19 A2997 RMK A01 T02840188  RH  059%=      5-min Rain = 0
KKN1 261935Z 17017G22KT 28/19 A2997 RMK A01 T02840189  RH  060%=      5-min Rain = 0
KKN1 261940Z 16016G23KT 29/19 A2997 RMK A01 T02860192  RH  060%=      5-min Rain = 0
KKN1 261945Z 16015G20KT 29/19 A2997 RMK A01 T02850193  RH  061%=      5-min Rain = 0
KKN1 261950Z 16018G23KT 28/19 A2997 RMK A01 T02810192  RH  062%=      5-min Rain = 0
KKN1 261955Z 17016G22KT 28/19 A2997 RMK A01 T02800194  RH  063%=      5-min Rain = 0
KKN1 262000Z 17017G22KT 28/19 A2997 RMK A01 T02810193  RH  062%=      5-min Rain = 0
KKN1 262005Z 17017G22KT 28/19 A2997 RMK A01 T02800193  RH  063%=      5-min Rain = 0
KKN1 262010Z 17016G23KT 28/19 A2997 RMK A01 T02810194  RH  062%=      5-min Rain = 0
KKN1 262015Z 17016G23KT 28/19 A2997 RMK A01 T02820193  RH  062%=      5-min Rain = 0
KKN1 262020Z 17016G22KT 29/19 A2997 RMK A01 T02890194  RH  060%=      5-min Rain = 0
KKN1 262025Z 17017G23KT 29/19 A2997 RMK A01 T02890194  RH  060%=      5-min Rain = 0
KKN1 262030Z 17016G21KT 29/19 A2997 RMK A01 T02860194  RH  061%=      5-min Rain = 0
KKN1 262035Z 17015G20KT 28/19 A2997 RMK A01 T02840194  RH  062%=      5-min Rain = 0
KKN1 262040Z 18018G23KT 28/19 A2997 RMK A01 T02840194  RH  062%=      5-min Rain = 0
KKN1 262045Z 17019G24KT 28/19 A2997 RMK A01 T02830194  RH  062%=      5-min Rain = 0
KKN1 262050Z 17018G24KT 28/19 A2997 RMK A01 T02810194  RH  062%=      5-min Rain = 0
KKN1 262055Z 17018G24KT 28/19 A2997 RMK A01 T02800193  RH  062%=      5-min Rain = 0
KKN1 262100Z 17017G23KT 28/19 A2997 RMK A01 T02810194  RH  062%=      5-min Rain = 0
KKN1 262105Z 17018KT 28/19 A2997 RMK A01 T02810194  RH  062%=      5-min Rain = 0
KKN1 262110Z 18017G22KT 28/19 A2997 RMK A01 T02810193  RH  062%=      5-min Rain = 0
KKN1 262115Z 18015G20KT 28/19 A2996 RMK A01 T02810194  RH  063%=      5-min Rain = 0
KKN1 262120Z 18016G22KT 28/19 A2996 RMK A01 T02800194  RH  063%=      5-min Rain = 0
KKN1 262125Z 17016G21KT 28/20 A2996 RMK A01 T02810195  RH  063%=      5-min Rain = 0
KKN1 262130Z 17017G22KT 28/20 A2995 RMK A01 T02830195  RH  062%=      5-min Rain = 0
KKN1 262135Z 17018G24KT 29/20 A2995 RMK A01 T02850196  RH  062%=      5-min Rain = 0
KKN1 262140Z 17018G23KT 29/20 A2994 RMK A01 T02870196  RH  061%=      5-min Rain = 0
KKN1 262145Z 17017G24KT 29/20 A2994 RMK A01 T02890196  RH  061%=      5-min Rain = 0
KKN1 262150Z 17019G24KT 29/20 A2994 RMK A01 T02880196  RH  061%=      5-min Rain = 0
KKN1 262155Z 18018G23KT 29/20 A2994 RMK A01 T02880195  RH  060%=      5-min Rain = 0
KKN1 262200Z 17018G24KT 29/20 A2993 RMK A01 T02860195  RH  061%=      5-min Rain = 0
KKN1 262205Z 16015G21KT 29/20 A2993 RMK A01 T02860197  RH  062%=      5-min Rain = 0
KKN1 262210Z 17015KT 29/20 A2993 RMK A01 T02850195  RH  061%=      5-min Rain = 0
KKN1 262215Z 17015G20KT 29/19 A2993 RMK A01 T02860194  RH  061%=      5-min Rain = 0
KKN1 262220Z 17015G21KT 29/19 A2993 RMK A01 T02890193  RH  060%=      5-min Rain = 0
KKN1 262225Z 17017G24KT 29/19 A2992 RMK A01 T02890191  RH  059%=      5-min Rain = 0
KKN1 262230Z 16016G22KT 29/19 A2992 RMK A01 T02900192  RH  059%=      5-min Rain = 0
KKN1 262235Z 17016G21KT 29/19 A2993 RMK A01 T02890191  RH  059%=      5-min Rain = 0
KKN1 262240Z 17015G23KT 29/19 A2993 RMK A01 T02900191  RH  059%=      5-min Rain = 0
KKN1 262245Z 17017G23KT 29/19 A2992 RMK A01 T02890190  RH  058%=      5-min Rain = 0
KKN1 262250Z 17016G21KT 29/19 A2992 RMK A01 T02870190  RH  059%=      5-min Rain = 0
KKN1 262255Z 17015G20KT 29/19 A2992 RMK A01 T02860190  RH  059%=      5-min Rain = 0
KKN1 262300Z 17015KT 29/19 A2992 RMK A01 T02860190  RH  059%=      5-min Rain = 0
KKN1 262305Z 17015G20KT 29/19 A2991 RMK A01 T02850189  RH  059%=      5-min Rain = 0
KKN1 262310Z 17014KT 29/19 A2991 RMK A01 T02850190  RH  060%=      5-min Rain = 0
KKN1 262315Z 16014G20KT 29/19 A299 RMK A01 T02860190  RH  059%=      5-min Rain = 0
KKN1 262320Z 16013KT 29/19 A299 RMK A01 T02870191  RH  059%=      5-min Rain = 0
KKN1 262325Z 16012G17KT 29/19 A299 RMK A01 T02870191  RH  059%=      5-min Rain = 0
KKN1 262330Z 16011G16KT 29/19 A299 RMK A01 T02870191  RH  059%=      5-min Rain = 0
KKN1 262335Z 16010KT 29/19 A299 RMK A01 T02870191  RH  059%=      5-min Rain = 0
KKN1 262340Z 16010KT 29/19 A299 RMK A01 T02870191  RH  059%=      5-min Rain = 0
KKN1 262345Z 16010KT 29/19 A299 RMK A01 T02860191  RH  060%=      5-min Rain = 0
KKN1 262350Z 16010KT 28/19 A299 RMK A01 T02840192  RH  061%=      5-min Rain = 0
KKN1 262355Z 16009KT 28/19 A299 RMK A01 T02830192  RH  061%=      5-min Rain = 0
KKN1 270000Z 15009KT 28/19 A2989 RMK A01 T02820192  RH  062%=      5-min Rain = 0
KKN1 270005Z 15010KT 28/19 A2988 RMK A01 T02820192  RH  061%=      5-min Rain = 0
KKN1 270010Z 14011G16KT 28/19 A2988 RMK A01 T02820191  RH  061%=      5-min Rain = 0
KKN1 270015Z 14010G17KT 28/19 A2987 RMK A01 T02820192  RH  061%=      5-min Rain = 0
KKN1 270020Z 15011KT 28/19 A2987 RMK A01 T02810190  RH  061%=      5-min Rain = 0
KKN1 270025Z 15011KT 28/19 A2986 RMK A01 T02800190  RH  061%=      5-min Rain = 0
KKN1 270030Z 14010G15KT 28/19 A2986 RMK A01 T02780190  RH  062%=      5-min Rain = 0
KKN1 270035Z 15010KT 28/19 A2987 RMK A01 T02780191  RH  063%=      5-min Rain = 0
KKN1 270040Z 15010G15KT 28/19 A2987 RMK A01 T02760192  RH  064%=      5-min Rain = 0
KKN1 270045Z 15012G17KT 28/19 A2987 RMK A01 T02760191  RH  063%=      5-min Rain = 0
KKN1 270050Z 15012KT 28/19 A2987 RMK A01 T02760190  RH  063%=      5-min Rain = 0
KKN1 270055Z 15011G16KT 28/19 A2987 RMK A01 T02760190  RH  063%=      5-min Rain = 0
KKN1 270100Z 15011KT 28/19 A2987 RMK A01 T02750190  RH  063%=      5-min Rain = 0
KKN1 270105Z 15009KT 27/19 A2987 RMK A01 T02720191  RH  065%=      5-min Rain = 0
KKN1 270110Z 14010KT 27/19 A2987 RMK A01 T02710191  RH  065%=      5-min Rain = 0
KKN1 270115Z 14010KT 27/19 A2987 RMK A01 T02710193  RH  066%=      5-min Rain = 0
KKN1 270120Z 14010KT 27/19 A2987 RMK A01 T02700193  RH  066%=      5-min Rain = 0
KKN1 270125Z 14011KT 27/19 A2986 RMK A01 T02700193  RH  067%=      5-min Rain = 0
KKN1 270130Z 14013G18KT 27/19 A2986 RMK A01 T02690193  RH  067%=      5-min Rain = 0
KKN1 270135Z 14012KT 27/19 A2986 RMK A01 T02690193  RH  067%=      5-min Rain = 0
KKN1 270140Z 14011KT 27/19 A2986 RMK A01 T02680194  RH  068%=      5-min Rain = 0
KKN1 270145Z 14011KT 27/19 A2986 RMK A01 T02660194  RH  068%=      5-min Rain = 0
KKN1 270150Z 14013KT 27/19 A2985 RMK A01 T02650194  RH  069%=      5-min Rain = 0
KKN1 270155Z 13014KT 27/19 A2984 RMK A01 T02650194  RH  069%=      5-min Rain = 0
KKN1 270200Z 13015KT 27/19 A2982 RMK A01 T02650193  RH  069%=      5-min Rain = 0
KKN1 270205Z 13015KT 26/19 A2982 RMK A01 T02640193  RH  069%=      5-min Rain = 0
KKN1 270210Z 14012KT 26/19 A2983 RMK A01 T02640193  RH  069%=      5-min Rain = 0
KKN1 270215Z 14012G17KT 26/19 A2983 RMK A01 T02630192  RH  069%=      5-min Rain = 0
KKN1 270220Z 14014G19KT 26/19 A2983 RMK A01 T02640192  RH  068%=      5-min Rain = 0
KKN1 270225Z 14014G20KT 26/19 A2982 RMK A01 T02640192  RH  068%=      5-min Rain = 0
KKN1 270230Z 14013KT 26/19 A2982 RMK A01 T02620191  RH  069%=      5-min Rain = 0
KKN1 270235Z 14015G20KT 26/19 A2983 RMK A01 T02620191  RH  069%=      5-min Rain = 0
KKN1 270240Z 14013G18KT 26/19 A2982 RMK A01 T02600190  RH  069%=      5-min Rain = 0
KKN1 270245Z 15013KT 26/19 A2983 RMK A01 T02600190  RH  069%=      5-min Rain = 0
KKN1 270250Z 15011G17KT 26/19 A2983 RMK A01 T02590190  RH  070%=      5-min Rain = 0
KKN1 270255Z 15011G16KT 26/19 A2984 RMK A01 T02570190  RH  070%=      5-min Rain = 0
KKN1 270300Z 15012G18KT 26/19 A2984 RMK A01 T02570190  RH  071%=      5-min Rain = 0
KKN1 270305Z 15010KT 26/19 A2984 RMK A01 T02550190  RH  071%=      5-min Rain = 0
KKN1 270310Z 15009G14KT 26/19 A2985 RMK A01 T02550190  RH  071%=      5-min Rain = 0
KKN1 270315Z 15008KT 25/19 A2986 RMK A01 T02530190  RH  072%=      5-min Rain = 0
KKN1 270320Z 15008KT 25/19 A2986 RMK A01 T02520191  RH  073%=      5-min Rain = 0
KKN1 270325Z 15008KT 25/19 A2986 RMK A01 T02520191  RH  073%=      5-min Rain = 0
KKN1 270330Z 15009G15KT 25/19 A2986 RMK A01 T02510191  RH  073%=      5-min Rain = 0
KKN1 270335Z 15009KT 25/19 A2986 RMK A01 T02520190  RH  073%=      5-min Rain = 0
KKN1 270340Z 15008KT 25/19 A2986 RMK A01 T02510190  RH  073%=      5-min Rain = 0
KKN1 270345Z 15009KT 25/19 A2986 RMK A01 T02500190  RH  073%=      5-min Rain = 0
KKN1 270350Z 15009KT 25/19 A2986 RMK A01 T02500190  RH  073%=      5-min Rain = 0
KKN1 270355Z 15009KT 25/19 A2986 RMK A01 T02490190  RH  073%=      5-min Rain = 0
KKN1 270400Z 15008G13KT 25/19 A2986 RMK A01 T02490189  RH  074%=      5-min Rain = 0
KKN1 270405Z 15009KT 25/19 A2986 RMK A01 T02500189  RH  073%=      5-min Rain = 0
KKN1 270410Z 15008KT 25/19 A2986 RMK A01 T02510188  RH  072%=      5-min Rain = 0
KKN1 270415Z 15009KT 25/19 A2986 RMK A01 T02510188  RH  072%=      5-min Rain = 0
KKN1 270420Z 15010KT 25/19 A2986 RMK A01 T02510188  RH  072%=      5-min Rain = 0
KKN1 270425Z 15009KT 25/19 A2986 RMK A01 T02500188  RH  072%=      5-min Rain = 0
KKN1 270430Z 14009KT 25/19 A2986 RMK A01 T02480188  RH  073%=      5-min Rain = 0
KKN1 270435Z 15007KT 25/19 A2986 RMK A01 T02470188  RH  074%=      5-min Rain = 0
KKN1 270440Z 14007KT 25/19 A2986 RMK A01 T02460188  RH  074%=      5-min Rain = 0
KKN1 270445Z 14007KT 25/19 A2986 RMK A01 T02450188  RH  075%=      5-min Rain = 0
KKN1 270450Z 14006KT 24/19 A2986 RMK A01 T02440188  RH  075%=      5-min Rain = 0
KKN1 270455Z 14006KT 24/19 A2986 RMK A01 T02430188  RH  075%=      5-min Rain = 0

Page generated in 0.009 seconds.